Time;durP1;ratioP1;P1;durP2;ratioP2;P2;SDS_P1;SDS_P2;PMS_P1;PMS_P2;Temp;Humidity;BMP_temperature;BMP_pressure;BME280_temperature;BME280_humidity;BME280_pressure;Samples;Min_cycle;Max_cycle;Signal;HPM_P1;HPM_P2
2021/04/07 00:00:24;;;;;;;;;;;21.40;33.80;;;;;;462973;257;1056;-45
2021/04/07 00:02:25;;;;;;;;;;;21.50;33.80;;;;;;462903;257;1233;-45
2021/04/07 00:04:26;;;;;;;;;;;21.50;33.80;;;;;;463136;257;1210;-45
2021/04/07 00:06:27;;;;;;;;;;;21.50;33.80;;;;;;462994;257;1066;-45
2021/04/07 00:08:31;;;;;;;;;;;21.50;33.80;;;;;;462995;257;2164;-45
2021/04/07 00:10:30;;;;;;;;;;;21.50;33.80;;;;;;462822;258;1965;-45
2021/04/07 00:12:31;;;;;;;;;;;21.50;33.80;;;;;;462924;257;1161;-45
2021/04/07 00:14:33;;;;;;;;;;;21.50;33.80;;;;;;463082;257;1078;-45
2021/04/07 00:16:34;;;;;;;;;;;21.50;33.90;;;;;;462911;257;1128;-44
2021/04/07 00:18:35;;;;;;;;;;;21.50;33.90;;;;;;463219;257;1055;-44
2021/04/07 00:20:36;;;;;;;;;;;21.50;33.80;;;;;;463048;257;1068;-45
2021/04/07 00:22:38;;;;;;;;;;;21.50;33.80;;;;;;462926;257;1103;-45
2021/04/07 00:24:39;;;;;;;;;;;21.50;33.80;;;;;;462937;257;1053;-45
2021/04/07 00:26:40;;;;;;;;;;;21.50;33.80;;;;;;462979;257;1211;-44
2021/04/07 00:28:41;;;;;;;;;;;21.50;33.80;;;;;;462904;257;2199;-44
2021/04/07 00:30:43;;;;;;;;;;;21.50;33.80;;;;;;462936;257;1073;-45
2021/04/07 00:32:44;;;;;;;;;;;21.50;33.80;;;;;;463070;257;1072;-45
2021/04/07 00:34:45;;;;;;;;;;;21.50;33.80;;;;;;462944;257;1130;-45
2021/04/07 00:36:47;;;;;;;;;;;21.50;33.80;;;;;;463041;257;1053;-45
2021/04/07 00:38:48;;;;;;;;;;;21.50;33.80;;;;;;462992;257;1072;-45
2021/04/07 00:40:49;;;;;;;;;;;21.50;33.90;;;;;;462955;257;1078;-44
2021/04/07 00:42:51;;;;;;;;;;;21.50;33.80;;;;;;462915;257;1580;-45
2021/04/07 00:44:52;;;;;;;;;;;21.50;33.80;;;;;;462859;257;1187;-45
2021/04/07 00:46:53;;;;;;;;;;;21.50;33.80;;;;;;462981;257;1259;-45
2021/04/07 00:48:54;;;;;;;;;;;21.50;33.90;;;;;;462913;257;2160;-45
2021/04/07 00:50:56;;;;;;;;;;;21.50;33.80;;;;;;462896;257;1089;-45
2021/04/07 00:52:57;;;;;;;;;;;21.50;33.80;;;;;;462947;257;1233;-45
2021/04/07 00:54:59;;;;;;;;;;;21.50;33.90;;;;;;462937;257;1080;-45
2021/04/07 00:56:59;;;;;;;;;;;21.50;33.90;;;;;;462819;258;2459;-45
2021/04/07 00:59:01;;;;;;;;;;;21.50;33.80;;;;;;462917;257;1059;-45
2021/04/07 01:01:02;;;;;;;;;;;21.50;33.80;;;;;;462930;257;1094;-45
2021/04/07 01:03:03;;;;;;;;;;;21.50;33.80;;;;;;462959;257;1128;-45
2021/04/07 01:05:05;;;;;;;;;;;21.50;33.90;;;;;;462994;257;1066;-45
2021/04/07 01:07:06;;;;;;;;;;;21.60;33.80;;;;;;462998;257;1089;-45
2021/04/07 01:09:07;;;;;;;;;;;21.60;33.80;;;;;;462889;257;2148;-45
2021/04/07 01:11:08;;;;;;;;;;;21.50;33.80;;;;;;463229;257;1059;-45
2021/04/07 01:13:10;;;;;;;;;;;21.60;33.80;;;;;;463013;257;1192;-45
2021/04/07 01:15:11;;;;;;;;;;;21.60;33.80;;;;;;463012;257;1058;-45
2021/04/07 01:17:12;;;;;;;;;;;21.60;33.80;;;;;;462901;257;1286;-44
2021/04/07 01:19:14;;;;;;;;;;;21.60;33.80;;;;;;462951;257;1020;-45
2021/04/07 01:21:15;;;;;;;;;;;21.60;33.80;;;;;;462895;257;1332;-45
2021/04/07 01:23:16;;;;;;;;;;;21.60;33.80;;;;;;463307;257;1080;-44
2021/04/07 01:25:17;;;;;;;;;;;21.60;33.80;;;;;;462918;257;1132;-45
2021/04/07 01:27:19;;;;;;;;;;;21.60;33.80;;;;;;462877;257;1216;-45
2021/04/07 01:29:20;;;;;;;;;;;21.60;33.80;;;;;;462934;257;2149;-44
2021/04/07 01:31:21;;;;;;;;;;;21.60;33.80;;;;;;463104;257;1314;-45
2021/04/07 01:33:22;;;;;;;;;;;21.60;33.80;;;;;;462954;257;1038;-45
2021/04/07 01:35:24;;;;;;;;;;;21.60;33.80;;;;;;463020;257;1240;-45
2021/04/07 01:37:25;;;;;;;;;;;21.60;33.80;;;;;;462978;257;1077;-45
2021/04/07 01:39:26;;;;;;;;;;;21.60;33.80;;;;;;463080;257;1082;-45
2021/04/07 01:41:28;;;;;;;;;;;21.60;33.80;;;;;;463088;257;1083;-45
2021/04/07 01:43:29;;;;;;;;;;;21.60;33.80;;;;;;462975;257;1125;-45
2021/04/07 01:45:30;;;;;;;;;;;21.60;33.80;;;;;;463103;257;1052;-45
2021/04/07 01:47:31;;;;;;;;;;;21.60;33.80;;;;;;462972;257;1054;-44
2021/04/07 01:49:33;;;;;;;;;;;21.60;33.80;;;;;;463136;257;2147;-45
2021/04/07 01:51:34;;;;;;;;;;;21.60;33.80;;;;;;462948;257;1056;-45
2021/04/07 01:53:36;;;;;;;;;;;21.60;33.80;;;;;;463002;257;1075;-45
2021/04/07 01:55:37;;;;;;;;;;;21.60;33.80;;;;;;462913;257;1080;-45
2021/04/07 01:57:38;;;;;;;;;;;21.60;33.80;;;;;;462918;257;1187;-45
2021/04/07 01:59:39;;;;;;;;;;;21.60;33.80;;;;;;462987;257;1062;-45
2021/04/07 02:01:41;;;;;;;;;;;21.60;33.80;;;;;;462883;257;1199;-45
2021/04/07 02:03:42;;;;;;;;;;;21.60;33.70;;;;;;462873;257;1123;-45
2021/04/07 02:05:43;;;;;;;;;;;21.60;33.80;;;;;;462905;254;1145;-45
2021/04/07 02:07:44;;;;;;;;;;;21.60;33.80;;;;;;462934;257;1121;-45
2021/04/07 02:09:46;;;;;;;;;;;21.60;33.80;;;;;;462930;257;2223;-45
2021/04/07 02:11:47;;;;;;;;;;;21.60;33.80;;;;;;462893;257;1191;-45
2021/04/07 02:13:48;;;;;;;;;;;21.60;33.90;;;;;;462961;257;1185;-45
2021/04/07 02:15:50;;;;;;;;;;;21.60;33.90;;;;;;462992;257;1147;-45
2021/04/07 02:17:51;;;;;;;;;;;21.60;33.80;;;;;;463134;257;1082;-45
2021/04/07 02:19:52;;;;;;;;;;;21.60;33.80;;;;;;462892;257;1132;-45
2021/04/07 02:21:53;;;;;;;;;;;21.60;33.80;;;;;;462828;257;1230;-45
2021/04/07 02:23:55;;;;;;;;;;;21.60;33.80;;;;;;462997;257;1077;-45
2021/04/07 02:25:56;;;;;;;;;;;21.60;33.80;;;;;;462970;257;1063;-45
2021/04/07 02:27:57;;;;;;;;;;;21.60;33.80;;;;;;462918;257;1284;-45
2021/04/07 02:29:59;;;;;;;;;;;21.60;33.80;;;;;;462971;257;2203;-45
2021/04/07 02:32:00;;;;;;;;;;;21.60;33.80;;;;;;462905;257;1085;-45
2021/04/07 02:34:01;;;;;;;;;;;21.60;33.80;;;;;;463094;257;1048;-45
2021/04/07 02:36:02;;;;;;;;;;;21.60;33.80;;;;;;462942;257;1088;-45
2021/04/07 02:38:04;;;;;;;;;;;21.60;33.90;;;;;;463093;257;1087;-45
2021/04/07 02:40:05;;;;;;;;;;;21.60;33.80;;;;;;462914;257;1075;-45
2021/04/07 02:42:06;;;;;;;;;;;21.60;33.80;;;;;;462914;257;1078;-45
2021/04/07 02:44:08;;;;;;;;;;;21.60;33.80;;;;;;463013;257;1296;-44
2021/04/07 02:46:09;;;;;;;;;;;21.60;33.80;;;;;;462920;257;1398;-45
2021/04/07 02:48:10;;;;;;;;;;;21.60;33.70;;;;;;463055;257;1051;-45
2021/04/07 02:50:11;;;;;;;;;;;21.60;33.70;;;;;;463338;257;2132;-45
2021/04/07 02:52:13;;;;;;;;;;;21.60;33.80;;;;;;462912;257;1087;-45
2021/04/07 02:54:14;;;;;;;;;;;21.60;33.80;;;;;;463248;257;1054;-45
2021/04/07 02:56:15;;;;;;;;;;;21.60;33.80;;;;;;463041;257;1038;-45
2021/04/07 02:58:16;;;;;;;;;;;21.70;33.80;;;;;;463013;257;1321;-45
2021/04/07 03:00:18;;;;;;;;;;;21.60;33.70;;;;;;463031;257;1115;-45
2021/04/07 03:02:19;;;;;;;;;;;21.60;33.70;;;;;;463009;257;1094;-45
2021/04/07 03:04:20;;;;;;;;;;;21.60;33.80;;;;;;462875;257;1205;-45
2021/04/07 03:06:22;;;;;;;;;;;21.60;33.80;;;;;;462913;257;1133;-45
2021/04/07 03:08:23;;;;;;;;;;;21.60;33.70;;;;;;463078;257;1129;-45
2021/04/07 03:10:24;;;;;;;;;;;21.60;33.80;;;;;;462952;257;2194;-45
2021/04/07 03:12:26;;;;;;;;;;;21.60;33.80;;;;;;463123;257;1118;-45
2021/04/07 03:14:27;;;;;;;;;;;21.60;33.80;;;;;;462872;257;1147;-45
2021/04/07 03:16:28;;;;;;;;;;;21.60;33.80;;;;;;462858;257;1120;-44
2021/04/07 03:18:29;;;;;;;;;;;21.60;33.80;;;;;;463070;257;1206;-45
2021/04/07 03:20:31;;;;;;;;;;;21.60;33.80;;;;;;462904;257;1138;-45
2021/04/07 03:22:32;;;;;;;;;;;21.60;33.80;;;;;;462948;257;1049;-45
2021/04/07 03:24:33;;;;;;;;;;;21.60;33.90;;;;;;462972;257;1103;-45
2021/04/07 03:26:34;;;;;;;;;;;21.60;33.80;;;;;;462911;257;1392;-45
2021/04/07 03:28:36;;;;;;;;;;;21.60;33.80;;;;;;462875;257;2211;-45
2021/04/07 03:30:49;;;;;;;;;;;21.60;33.80;;;;;;463014;257;1122;-45
2021/04/07 03:32:50;;;;;;;;;;;21.60;33.80;;;;;;462867;257;1240;-45
2021/04/07 03:34:51;;;;;;;;;;;21.70;33.80;;;;;;463067;257;1096;-45
2021/04/07 03:36:52;;;;;;;;;;;21.70;33.80;;;;;;462903;257;1075;-45
2021/04/07 03:38:54;;;;;;;;;;;21.70;33.70;;;;;;462987;257;1166;-45
2021/04/07 03:40:55;;;;;;;;;;;21.70;33.70;;;;;;462961;257;1075;-44
2021/04/07 03:42:56;;;;;;;;;;;21.70;33.70;;;;;;462977;257;1053;-44
2021/04/07 03:44:58;;;;;;;;;;;21.70;33.70;;;;;;462917;257;1118;-45
2021/04/07 03:46:59;;;;;;;;;;;21.70;33.70;;;;;;462913;257;1157;-45
2021/04/07 03:49:00;;;;;;;;;;;21.70;33.70;;;;;;462984;257;2151;-45
2021/04/07 03:51:02;;;;;;;;;;;21.70;33.70;;;;;;462880;257;1158;-45
2021/04/07 03:53:03;;;;;;;;;;;21.70;33.80;;;;;;462895;257;1357;-45
2021/04/07 03:55:04;;;;;;;;;;;21.70;33.70;;;;;;463003;257;1105;-45
2021/04/07 03:57:05;;;;;;;;;;;21.70;33.80;;;;;;462910;257;1175;-45
2021/04/07 03:59:07;;;;;;;;;;;21.70;33.70;;;;;;462888;257;1197;-45
2021/04/07 04:01:08;;;;;;;;;;;21.70;33.70;;;;;;463042;257;1141;-45
2021/04/07 04:03:09;;;;;;;;;;;21.70;33.70;;;;;;463007;255;1376;-45
2021/04/07 04:05:10;;;;;;;;;;;21.70;33.80;;;;;;462928;257;1579;-45
2021/04/07 04:07:12;;;;;;;;;;;21.70;33.70;;;;;;463011;257;1044;-45
2021/04/07 04:09:13;;;;;;;;;;;21.70;33.70;;;;;;462982;257;2144;-45
2021/04/07 04:11:14;;;;;;;;;;;21.70;33.80;;;;;;462947;257;1044;-45
2021/04/07 04:13:16;;;;;;;;;;;21.70;33.80;;;;;;463017;257;1071;-45
2021/04/07 04:15:17;;;;;;;;;;;21.70;33.70;;;;;;462905;257;1156;-45
2021/04/07 04:17:18;;;;;;;;;;;21.70;33.80;;;;;;462897;257;1111;-45
2021/04/07 04:19:19;;;;;;;;;;;21.70;33.80;;;;;;462988;257;1064;-45
2021/04/07 04:21:21;;;;;;;;;;;21.70;33.70;;;;;;462752;257;1552;-45
2021/04/07 04:23:22;;;;;;;;;;;21.70;33.70;;;;;;462876;257;1041;-44
2021/04/07 04:25:23;;;;;;;;;;;21.70;33.80;;;;;;462849;257;1250;-45
2021/04/07 04:27:24;;;;;;;;;;;21.70;33.70;;;;;;462846;257;1170;-44
2021/04/07 04:29:26;;;;;;;;;;;21.70;33.80;;;;;;463041;257;2206;-45
2021/04/07 04:31:27;;;;;;;;;;;21.70;33.80;;;;;;462756;257;1219;-45
2021/04/07 04:33:28;;;;;;;;;;;21.70;33.80;;;;;;462998;257;1053;-45
2021/04/07 04:35:30;;;;;;;;;;;21.70;33.80;;;;;;462978;257;1061;-45
2021/04/07 04:37:31;;;;;;;;;;;21.70;33.80;;;;;;462759;257;1257;-45
2021/04/07 04:39:32;;;;;;;;;;;21.70;33.80;;;;;;462967;257;1057;-45
2021/04/07 04:41:33;;;;;;;;;;;21.70;33.80;;;;;;462867;257;1075;-45
2021/04/07 04:43:35;;;;;;;;;;;21.70;33.80;;;;;;462860;257;1113;-45
2021/04/07 04:45:36;;;;;;;;;;;21.70;33.80;;;;;;462784;257;1216;-45
2021/04/07 04:47:37;;;;;;;;;;;21.70;33.80;;;;;;462758;257;1342;-45
2021/04/07 04:49:39;;;;;;;;;;;21.70;33.80;;;;;;462766;257;2198;-45
2021/04/07 04:51:40;;;;;;;;;;;21.70;33.80;;;;;;462657;257;1137;-45
2021/04/07 04:53:41;;;;;;;;;;;21.70;33.80;;;;;;463106;257;1122;-45
2021/04/07 04:55:42;;;;;;;;;;;21.70;33.70;;;;;;462738;257;1057;-45
2021/04/07 04:57:44;;;;;;;;;;;21.70;33.70;;;;;;462716;257;1164;-45
2021/04/07 04:59:45;;;;;;;;;;;21.70;33.80;;;;;;462722;257;1309;-45
2021/04/07 05:01:46;;;;;;;;;;;21.70;33.70;;;;;;462754;257;1103;-45
2021/04/07 05:03:48;;;;;;;;;;;21.70;33.80;;;;;;462717;257;1070;-45
2021/04/07 05:05:49;;;;;;;;;;;21.70;33.70;;;;;;462818;257;1144;-45
2021/04/07 05:07:50;;;;;;;;;;;21.70;33.80;;;;;;462700;257;1118;-45
2021/04/07 05:09:51;;;;;;;;;;;21.70;33.80;;;;;;462753;257;2199;-45
2021/04/07 05:11:53;;;;;;;;;;;21.70;33.80;;;;;;462622;257;1093;-45
2021/04/07 05:13:54;;;;;;;;;;;21.70;33.70;;;;;;462696;257;1140;-45
2021/04/07 05:15:55;;;;;;;;;;;21.70;33.80;;;;;;462741;254;1220;-45
2021/04/07 05:17:57;;;;;;;;;;;21.70;33.80;;;;;;462709;257;1209;-45
2021/04/07 05:19:58;;;;;;;;;;;21.70;33.80;;;;;;462796;257;1074;-45
2021/04/07 05:21:59;;;;;;;;;;;21.70;33.70;;;;;;462512;257;1248;-45
2021/04/07 05:24:01;;;;;;;;;;;21.70;33.80;;;;;;462598;257;1221;-45
2021/04/07 05:26:02;;;;;;;;;;;21.70;33.80;;;;;;462658;257;1374;-45
2021/04/07 05:28:03;;;;;;;;;;;21.70;33.70;;;;;;462685;257;1052;-45
2021/04/07 05:30:05;;;;;;;;;;;21.70;33.80;;;;;;462743;257;2156;-44
2021/04/07 05:32:06;;;;;;;;;;;21.70;33.80;;;;;;462567;257;1256;-45
2021/04/07 05:34:07;;;;;;;;;;;21.30;34.40;;;;;;462635;257;1072;-45
2021/04/07 05:36:08;;;;;;;;;;;20.60;35.50;;;;;;462618;254;1246;-44
2021/04/07 05:38:10;;;;;;;;;;;20.10;36.40;;;;;;462627;257;1119;-44
2021/04/07 05:40:11;;;;;;;;;;;19.80;37.10;;;;;;462591;257;1067;-44
2021/04/07 05:42:12;;;;;;;;;;;19.50;37.60;;;;;;462591;257;1347;-45
2021/04/07 05:44:14;;;;;;;;;;;19.30;38.00;;;;;;462609;257;1399;-44
2021/04/07 05:46:15;;;;;;;;;;;19.20;38.40;;;;;;462572;257;1374;-44
2021/04/07 05:48:16;;;;;;;;;;;19.10;38.60;;;;;;462498;257;1129;-44
2021/04/07 05:50:17;;;;;;;;;;;18.90;38.80;;;;;;462460;257;2199;-44
2021/04/07 05:52:19;;;;;;;;;;;18.80;39.00;;;;;;462398;257;1236;-44
2021/04/07 05:54:20;;;;;;;;;;;18.80;39.10;;;;;;462403;257;1091;-44
2021/04/07 05:56:21;;;;;;;;;;;18.70;39.10;;;;;;462377;254;1194;-45
2021/04/07 05:58:22;;;;;;;;;;;18.60;39.30;;;;;;462487;257;1287;-44
2021/04/07 06:00:24;;;;;;;;;;;18.60;39.40;;;;;;462542;257;1348;-44
2021/04/07 06:02:25;;;;;;;;;;;18.50;39.40;;;;;;462433;257;1092;-44
2021/04/07 06:04:27;;;;;;;;;;;18.50;39.60;;;;;;462507;257;1104;-44
2021/04/07 06:06:29;;;;;;;;;;;18.50;39.60;;;;;;462375;257;1126;-44
2021/04/07 06:08:29;;;;;;;;;;;18.40;39.60;;;;;;462344;257;1850;-44
2021/04/07 06:10:31;;;;;;;;;;;18.40;39.70;;;;;;462106;257;2219;-44
2021/04/07 06:12:32;;;;;;;;;;;18.40;39.80;;;;;;462359;257;1224;-44
2021/04/07 06:14:33;;;;;;;;;;;18.30;39.80;;;;;;462373;257;1126;-44
2021/04/07 06:16:35;;;;;;;;;;;18.30;39.90;;;;;;462303;257;1259;-44
2021/04/07 06:18:36;;;;;;;;;;;18.20;39.90;;;;;;462337;257;1192;-44
2021/04/07 06:20:37;;;;;;;;;;;18.20;40.00;;;;;;462519;257;1278;-44
2021/04/07 06:22:39;;;;;;;;;;;18.20;39.90;;;;;;462811;257;1213;-45
2021/04/07 06:24:40;;;;;;;;;;;18.20;39.90;;;;;;462304;257;1130;-45
2021/04/07 06:26:41;;;;;;;;;;;18.10;39.90;;;;;;462162;257;1302;-44
2021/04/07 06:28:42;;;;;;;;;;;18.10;40.10;;;;;;462452;257;1204;-44
2021/04/07 06:30:44;;;;;;;;;;;18.10;40.10;;;;;;462382;257;2203;-44
2021/04/07 06:32:45;;;;;;;;;;;18.00;40.10;;;;;;462436;257;1139;-44
2021/04/07 06:34:46;;;;;;;;;;;18.00;40.20;;;;;;462305;257;1139;-44
2021/04/07 06:36:48;;;;;;;;;;;18.00;40.20;;;;;;462324;257;1185;-44
2021/04/07 06:38:49;;;;;;;;;;;18.00;40.10;;;;;;462486;257;1320;-44
2021/04/07 06:40:50;;;;;;;;;;;18.00;40.10;;;;;;462349;257;1197;-44
2021/04/07 06:42:52;;;;;;;;;;;18.00;40.10;;;;;;462393;257;1108;-44
2021/04/07 06:44:53;;;;;;;;;;;17.90;40.20;;;;;;462243;257;1185;-44
2021/04/07 06:46:54;;;;;;;;;;;17.90;40.20;;;;;;462213;257;1218;-44
2021/04/07 06:48:55;;;;;;;;;;;17.90;40.20;;;;;;462384;257;1357;-44
2021/04/07 06:50:57;;;;;;;;;;;17.90;40.20;;;;;;462280;257;2199;-44
2021/04/07 06:52:58;;;;;;;;;;;17.90;40.20;;;;;;462283;257;1079;-44
2021/04/07 06:55:00;;;;;;;;;;;17.80;40.20;;;;;;462299;257;1156;-44
2021/04/07 06:57:01;;;;;;;;;;;17.80;40.30;;;;;;462279;257;1233;-45
2021/04/07 06:59:02;;;;;;;;;;;17.80;40.20;;;;;;462416;257;1095;-44
2021/04/07 07:01:04;;;;;;;;;;;17.80;40.30;;;;;;462391;257;1258;-44
2021/04/07 07:03:05;;;;;;;;;;;17.80;40.30;;;;;;462326;257;1111;-44
2021/04/07 07:05:06;;;;;;;;;;;17.80;40.20;;;;;;462278;257;1100;-44
2021/04/07 07:07:08;;;;;;;;;;;17.80;40.20;;;;;;462388;257;1203;-44
2021/04/07 07:09:09;;;;;;;;;;;17.80;40.10;;;;;;462263;257;1106;-44
2021/04/07 07:11:10;;;;;;;;;;;17.80;40.20;;;;;;462083;257;2199;-44
2021/04/07 07:13:12;;;;;;;;;;;17.80;40.20;;;;;;462341;257;1163;-44
2021/04/07 07:15:13;;;;;;;;;;;17.70;40.20;;;;;;462203;257;1310;-44
2021/04/07 07:17:14;;;;;;;;;;;17.70;40.20;;;;;;462281;257;1253;-44
2021/04/07 07:19:16;;;;;;;;;;;17.70;40.20;;;;;;462031;257;1199;-44
2021/04/07 07:21:17;;;;;;;;;;;17.70;40.20;;;;;;462073;257;1137;-44
2021/04/07 07:23:18;;;;;;;;;;;17.70;40.20;;;;;;462272;257;1217;-44
2021/04/07 07:25:19;;;;;;;;;;;17.70;40.30;;;;;;462300;257;1119;-44
2021/04/07 07:27:21;;;;;;;;;;;17.70;40.30;;;;;;462294;257;1088;-44
2021/04/07 07:29:22;;;;;;;;;;;17.60;40.30;;;;;;462291;257;1416;-44
2021/04/07 07:31:24;;;;;;;;;;;17.60;40.30;;;;;;462213;257;2211;-44
2021/04/07 07:33:25;;;;;;;;;;;17.70;40.30;;;;;;462196;257;1132;-45
2021/04/07 07:35:27;;;;;;;;;;;17.90;39.60;;;;;;462254;255;1372;-44
2021/04/07 07:37:28;;;;;;;;;;;18.40;38.70;;;;;;462061;257;1238;-45
2021/04/07 07:39:30;;;;;;;;;;;18.80;37.90;;;;;;461375;257;1355;-45
2021/04/07 07:41:31;;;;;;;;;;;19.10;37.40;;;;;;461887;257;1876;-44
2021/04/07 07:43:32;;;;;;;;;;;19.20;36.90;;;;;;462152;257;1161;-44
2021/04/07 07:45:34;;;;;;;;;;;19.40;36.60;;;;;;462323;257;1107;-44
2021/04/07 07:47:39;;;;;;;;;;;19.50;36.40;;;;;;462268;257;1655;-44
2021/04/07 07:49:36;;;;;;;;;;;19.60;36.20;;;;;;461953;258;1913;-45
2021/04/07 07:51:37;;;;;;;;;;;19.70;36.00;;;;;;462206;257;2143;-45
2021/04/07 07:53:39;;;;;;;;;;;19.80;35.90;;;;;;462331;257;1179;-45
2021/04/07 07:55:40;;;;;;;;;;;19.80;35.70;;;;;;462299;257;1184;-45
2021/04/07 07:57:41;;;;;;;;;;;19.90;35.70;;;;;;462294;257;1226;-44
2021/04/07 07:59:43;;;;;;;;;;;19.90;35.50;;;;;;462186;257;1099;-45
2021/04/07 08:01:44;;;;;;;;;;;19.90;35.40;;;;;;462096;257;1308;-45
2021/04/07 08:03:45;;;;;;;;;;;20.00;35.40;;;;;;462372;257;1205;-45
2021/04/07 08:05:47;;;;;;;;;;;20.00;35.30;;;;;;462349;257;1191;-45
2021/04/07 08:07:48;;;;;;;;;;;20.10;35.30;;;;;;462305;257;1150;-45
2021/04/07 08:09:49;;;;;;;;;;;20.10;35.20;;;;;;462196;257;1156;-44
2021/04/07 08:11:50;;;;;;;;;;;20.20;35.20;;;;;;462200;254;2187;-44
2021/04/07 08:13:52;;;;;;;;;;;20.20;35.10;;;;;;462806;257;1093;-45
2021/04/07 08:15:53;;;;;;;;;;;20.20;35.00;;;;;;462911;257;873;-45
2021/04/07 08:17:54;;;;;;;;;;;20.30;35.00;;;;;;462169;257;1387;-45
2021/04/07 08:19:56;;;;;;;;;;;20.30;34.90;;;;;;462097;257;1254;-45
2021/04/07 08:21:58;;;;;;;;;;;20.30;34.90;;;;;;462105;257;1241;-45
2021/04/07 08:23:58;;;;;;;;;;;20.30;34.80;;;;;;462278;257;1214;-44
2021/04/07 08:26:00;;;;;;;;;;;20.30;34.80;;;;;;462270;257;1263;-45
2021/04/07 08:28:01;;;;;;;;;;;20.30;34.70;;;;;;462301;257;1208;-44
2021/04/07 08:30:02;;;;;;;;;;;20.40;34.70;;;;;;462256;257;1187;-44
2021/04/07 08:32:04;;;;;;;;;;;20.40;34.70;;;;;;462239;257;2124;-45
2021/04/07 08:34:05;;;;;;;;;;;20.40;34.60;;;;;;462170;257;1220;-45
2021/04/07 08:36:06;;;;;;;;;;;20.50;34.60;;;;;;462170;257;1224;-45
2021/04/07 08:38:08;;;;;;;;;;;20.50;34.60;;;;;;462209;257;1109;-45
2021/04/07 08:40:09;;;;;;;;;;;20.50;34.50;;;;;;462316;257;1261;-45
2021/04/07 08:42:11;;;;;;;;;;;20.50;34.40;;;;;;462462;257;1314;-44
2021/04/07 08:44:12;;;;;;;;;;;20.60;34.40;;;;;;462296;257;1083;-45
2021/04/07 08:46:14;;;;;;;;;;;20.60;34.40;;;;;;462262;257;1238;-45
2021/04/07 08:48:22;;;;;;;;;;;20.60;34.30;;;;;;462273;257;1415;-45
2021/04/07 08:50:22;;;;;;;;;;;20.60;34.30;;;;;;461910;257;2207;-44
2021/04/07 08:52:24;;;;;;;;;;;20.60;34.20;;;;;;462392;257;1248;-44
2021/04/07 08:54:24;;;;;;;;;;;20.70;34.30;;;;;;462183;257;1341;-45
2021/04/07 08:56:26;;;;;;;;;;;20.70;34.20;;;;;;462173;257;1344;-45
2021/04/07 08:58:27;;;;;;;;;;;20.70;34.20;;;;;;462202;257;1098;-45
2021/04/07 09:00:28;;;;;;;;;;;20.70;34.10;;;;;;462220;257;1168;-44
2021/04/07 09:02:30;;;;;;;;;;;20.70;34.10;;;;;;462155;257;1233;-44
2021/04/07 09:04:31;;;;;;;;;;;20.80;34.10;;;;;;462255;257;1367;-44
2021/04/07 09:06:32;;;;;;;;;;;20.80;34.10;;;;;;462447;254;1348;-45
2021/04/07 09:08:34;;;;;;;;;;;20.80;34.00;;;;;;462187;257;1091;-45
2021/04/07 09:10:35;;;;;;;;;;;20.80;34.00;;;;;;462161;257;2396;-45
2021/04/07 09:12:36;;;;;;;;;;;20.80;34.00;;;;;;461999;257;1253;-44
2021/04/07 09:14:38;;;;;;;;;;;20.80;34.00;;;;;;461898;257;1557;-44
2021/04/07 09:16:39;;;;;;;;;;;20.80;33.90;;;;;;461247;257;1212;-45
2021/04/07 09:18:40;;;;;;;;;;;20.80;34.00;;;;;;462066;257;1159;-45
2021/04/07 09:20:41;;;;;;;;;;;20.80;33.90;;;;;;462158;257;1089;-45
2021/04/07 09:22:43;;;;;;;;;;;20.90;33.90;;;;;;462253;257;1388;-44
2021/04/07 09:24:44;;;;;;;;;;;20.90;33.90;;;;;;462638;255;1312;-45
2021/04/07 09:26:45;;;;;;;;;;;20.90;33.90;;;;;;462189;257;1108;-45
2021/04/07 09:28:46;;;;;;;;;;;20.90;33.90;;;;;;461998;257;1114;-45
2021/04/07 09:30:48;;;;;;;;;;;20.90;33.90;;;;;;462033;257;2155;-45
2021/04/07 09:32:49;;;;;;;;;;;20.90;33.90;;;;;;461958;257;1588;-45
2021/04/07 09:34:50;;;;;;;;;;;20.90;33.90;;;;;;462183;257;1151;-45
2021/04/07 09:36:52;;;;;;;;;;;21.00;33.90;;;;;;462153;257;1114;-44
2021/04/07 09:38:53;;;;;;;;;;;20.90;33.80;;;;;;462062;257;1174;-45
2021/04/07 09:40:54;;;;;;;;;;;20.90;33.80;;;;;;462187;255;1242;-45
2021/04/07 09:42:55;;;;;;;;;;;20.90;33.80;;;;;;461924;257;1165;-45
2021/04/07 09:44:57;;;;;;;;;;;21.00;33.90;;;;;;462290;257;1110;-45
2021/04/07 09:46:59;;;;;;;;;;;21.00;33.80;;;;;;462184;257;1115;-45
2021/04/07 09:49:00;;;;;;;;;;;21.00;33.80;;;;;;462104;257;1781;-44
2021/04/07 09:51:01;;;;;;;;;;;21.00;33.80;;;;;;462042;257;2139;-45
2021/04/07 09:53:02;;;;;;;;;;;21.00;33.80;;;;;;462130;257;1228;-45
2021/04/07 09:55:03;;;;;;;;;;;21.00;33.80;;;;;;462245;257;1124;-45
2021/04/07 09:57:05;;;;;;;;;;;21.00;33.80;;;;;;462144;257;1138;-44
2021/04/07 09:59:06;;;;;;;;;;;21.00;33.80;;;;;;462160;257;1273;-45
2021/04/07 10:01:07;;;;;;;;;;;21.00;33.80;;;;;;462178;257;1202;-45
2021/04/07 10:03:08;;;;;;;;;;;21.00;33.70;;;;;;462186;257;1225;-44
2021/04/07 10:05:10;;;;;;;;;;;21.10;33.70;;;;;;462025;257;1141;-45
2021/04/07 10:07:11;;;;;;;;;;;21.10;33.70;;;;;;462077;257;1161;-45
2021/04/07 10:09:12;;;;;;;;;;;21.10;33.70;;;;;;462225;257;1347;-45
2021/04/07 10:11:14;;;;;;;;;;;21.10;33.70;;;;;;462207;257;2199;-45
2021/04/07 10:13:15;;;;;;;;;;;21.10;33.70;;;;;;462135;257;1135;-45
2021/04/07 10:15:16;;;;;;;;;;;21.10;33.70;;;;;;462116;257;1147;-45
2021/04/07 10:17:17;;;;;;;;;;;21.10;33.60;;;;;;462243;257;1085;-45
2021/04/07 10:19:19;;;;;;;;;;;21.10;33.60;;;;;;462146;257;1198;-45
2021/04/07 10:21:20;;;;;;;;;;;21.10;33.60;;;;;;462058;257;1178;-44
2021/04/07 10:23:22;;;;;;;;;;;21.10;33.60;;;;;;462064;257;1128;-45
2021/04/07 10:25:23;;;;;;;;;;;21.10;33.60;;;;;;462046;257;2274;-44
2021/04/07 10:27:24;;;;;;;;;;;21.10;33.60;;;;;;462058;257;1182;-44
2021/04/07 10:29:26;;;;;;;;;;;21.20;33.50;;;;;;462302;257;1189;-44
2021/04/07 10:31:27;;;;;;;;;;;21.20;33.50;;;;;;462217;257;2207;-44
2021/04/07 10:33:28;;;;;;;;;;;21.20;33.50;;;;;;462297;257;1184;-45
2021/04/07 10:35:31;;;;;;;;;;;21.20;33.50;;;;;;462152;257;1226;-45
2021/04/07 10:37:31;;;;;;;;;;;21.20;33.50;;;;;;462345;257;1410;-45
2021/04/07 10:39:32;;;;;;;;;;;21.10;33.50;;;;;;462159;257;1168;-45
2021/04/07 10:41:34;;;;;;;;;;;21.20;33.50;;;;;;462306;257;1238;-45
2021/04/07 10:43:39;;;;;;;;;;;21.20;33.50;;;;;;462402;257;1098;-45
2021/04/07 10:45:37;;;;;;;;;;;21.20;33.50;;;;;;462076;257;2010;-45
2021/04/07 10:47:38;;;;;;;;;;;21.20;33.40;;;;;;462273;257;1120;-44
2021/04/07 10:49:39;;;;;;;;;;;21.20;33.50;;;;;;462353;256;1257;-44
2021/04/07 10:51:41;;;;;;;;;;;21.20;33.50;;;;;;461988;257;2199;-45
2021/04/07 10:53:43;;;;;;;;;;;21.20;33.50;;;;;;462209;257;1101;-45
2021/04/07 10:55:43;;;;;;;;;;;21.20;33.40;;;;;;462028;257;1373;-45
2021/04/07 10:57:47;;;;;;;;;;;21.20;33.30;;;;;;462171;257;1324;-45
2021/04/07 10:59:47;;;;;;;;;;;21.20;33.30;;;;;;462158;258;1410;-45
2021/04/07 11:01:48;;;;;;;;;;;21.20;33.40;;;;;;462009;257;1187;-44
2021/04/07 11:03:49;;;;;;;;;;;21.20;33.30;;;;;;462049;257;1146;-45
2021/04/07 11:05:51;;;;;;;;;;;21.20;33.40;;;;;;461946;257;1155;-45
2021/04/07 11:07:52;;;;;;;;;;;21.20;33.30;;;;;;462383;257;1178;-45
2021/04/07 11:09:53;;;;;;;;;;;21.20;33.30;;;;;;462824;257;899;-45
2021/04/07 11:11:54;;;;;;;;;;;21.20;33.30;;;;;;462820;257;2195;-45
2021/04/07 11:13:56;;;;;;;;;;;21.30;33.30;;;;;;462639;257;1088;-45
2021/04/07 11:15:57;;;;;;;;;;;21.20;33.30;;;;;;462280;257;1111;-45
2021/04/07 11:17:58;;;;;;;;;;;21.20;33.30;;;;;;462238;257;1150;-45
2021/04/07 11:19:59;;;;;;;;;;;21.20;33.30;;;;;;462128;257;1194;-45
2021/04/07 11:22:01;;;;;;;;;;;21.20;33.20;;;;;;462033;257;1429;-45
2021/04/07 11:24:02;;;;;;;;;;;21.30;33.30;;;;;;462079;257;1260;-45
2021/04/07 11:26:03;;;;;;;;;;;21.30;33.30;;;;;;461354;257;1087;-44
2021/04/07 11:28:04;;;;;;;;;;;21.30;33.30;;;;;;462005;257;1128;-45
2021/04/07 11:30:06;;;;;;;;;;;21.30;33.30;;;;;;462062;257;1078;-45
2021/04/07 11:32:08;;;;;;;;;;;21.30;33.20;;;;;;461967;257;2195;-44
2021/04/07 11:34:10;;;;;;;;;;;21.30;33.20;;;;;;462057;257;2258;-44
2021/04/07 11:36:18;;;;;;;;;;;21.30;33.20;;;;;;462210;257;2126;-45
2021/04/07 11:38:16;;;;;;;;;;;21.30;33.20;;;;;;461946;258;1824;-45
2021/04/07 11:40:31;;;;;;;;;;;21.30;33.20;;;;;;462102;258;2080;-44
2021/04/07 11:42:25;;;;;;;;;;;21.30;33.20;;;;;;461569;257;1375;-45
2021/04/07 11:44:27;;;;;;;;;;;21.30;33.20;;;;;;462132;258;1554;-45
2021/04/07 11:46:27;;;;;;;;;;;21.30;33.20;;;;;;462334;257;1202;-45
2021/04/07 11:48:29;;;;;;;;;;;21.30;33.20;;;;;;462259;257;1201;-45
2021/04/07 11:50:30;;;;;;;;;;;21.30;33.10;;;;;;462186;257;1281;-45
2021/04/07 11:52:32;;;;;;;;;;;21.40;33.20;;;;;;462200;257;2198;-45
2021/04/07 11:54:33;;;;;;;;;;;21.40;33.10;;;;;;462167;257;1589;-45
2021/04/07 11:56:34;;;;;;;;;;;21.40;33.20;;;;;;462142;257;1198;-44